sensor_id;sensor_type;location;lat;lon;timestamp;temperature;humidity
21805;DHT22;11064;47.102;15.452;2023-07-28T00:00:03;14.70;99.90
21805;DHT22;11064;47.102;15.452;2023-07-28T00:02:30;14.70;99.90
21805;DHT22;11064;47.102;15.452;2023-07-28T00:04:56;14.70;99.90
21805;DHT22;11064;47.102;15.452;2023-07-28T00:07:22;14.60;99.90
21805;DHT22;11064;47.102;15.452;2023-07-28T00:09:47;14.60;99.90
21805;DHT22;11064;47.102;15.452;2023-07-28T00:12:13;14.60;99.90
21805;DHT22;11064;47.102;15.452;2023-07-28T00:14:39;14.70;99.90
21805;DHT22;11064;47.102;15.452;2023-07-28T00:17:05;14.70;99.90
21805;DHT22;11064;47.102;15.452;2023-07-28T00:19:31;14.80;99.90
21805;DHT22;11064;47.102;15.452;2023-07-28T00:21:57;14.80;99.90
21805;DHT22;11064;47.102;15.452;2023-07-28T00:24:23;14.80;99.90
21805;DHT22;11064;47.102;15.452;2023-07-28T00:26:48;14.80;99.90
21805;DHT22;11064;47.102;15.452;2023-07-28T00:29:14;14.70;99.90
21805;DHT22;11064;47.102;15.452;2023-07-28T00:31:40;14.70;99.90
21805;DHT22;11064;47.102;15.452;2023-07-28T00:34:06;14.70;99.90
21805;DHT22;11064;47.102;15.452;2023-07-28T00:36:32;14.70;99.90
21805;DHT22;11064;47.102;15.452;2023-07-28T00:38:58;14.70;99.90
21805;DHT22;11064;47.102;15.452;2023-07-28T00:41:24;14.70;99.90
21805;DHT22;11064;47.102;15.452;2023-07-28T00:43:50;14.70;99.90
21805;DHT22;11064;47.102;15.452;2023-07-28T00:46:16;14.60;99.90
21805;DHT22;11064;47.102;15.452;2023-07-28T00:48:43;14.70;99.90
21805;DHT22;11064;47.102;15.452;2023-07-28T00:51:09;14.60;99.90
21805;DHT22;11064;47.102;15.452;2023-07-28T00:53:35;14.60;99.90
21805;DHT22;11064;47.102;15.452;2023-07-28T00:56:02;14.70;99.90
21805;DHT22;11064;47.102;15.452;2023-07-28T00:58:29;14.70;99.90
21805;DHT22;11064;47.102;15.452;2023-07-28T01:00:55;14.70;99.90
21805;DHT22;11064;47.102;15.452;2023-07-28T01:03:22;14.70;99.90
21805;DHT22;11064;47.102;15.452;2023-07-28T01:06:29;14.70;99.90
21805;DHT22;11064;47.102;15.452;2023-07-28T01:09:11;14.70;99.90
21805;DHT22;11064;47.102;15.452;2023-07-28T01:11:38;14.70;99.90
21805;DHT22;11064;47.102;15.452;2023-07-28T01:14:04;14.80;99.90
21805;DHT22;11064;47.102;15.452;2023-07-28T01:16:30;14.80;99.90
21805;DHT22;11064;47.102;15.452;2023-07-28T01:18:56;14.70;99.90
21805;DHT22;11064;47.102;15.452;2023-07-28T01:21:28;14.70;99.90
21805;DHT22;11064;47.102;15.452;2023-07-28T01:26:37;14.60;99.90
21805;DHT22;11064;47.102;15.452;2023-07-28T01:29:05;14.60;99.90
21805;DHT22;11064;47.102;15.452;2023-07-28T01:31:31;14.50;99.90
21805;DHT22;11064;47.102;15.452;2023-07-28T01:33:57;14.50;99.90
21805;DHT22;11064;47.102;15.452;2023-07-28T01:36:23;14.50;99.90
21805;DHT22;11064;47.102;15.452;2023-07-28T01:38:48;14.50;99.90
21805;DHT22;11064;47.102;15.452;2023-07-28T01:41:14;14.50;99.90
21805;DHT22;11064;47.102;15.452;2023-07-28T01:43:40;14.50;99.90
21805;DHT22;11064;47.102;15.452;2023-07-28T01:46:07;14.40;99.90
21805;DHT22;11064;47.102;15.452;2023-07-28T01:48:33;14.30;99.90
21805;DHT22;11064;47.102;15.452;2023-07-28T01:50:59;14.30;99.90
21805;DHT22;11064;47.102;15.452;2023-07-28T01:53:25;14.20;99.90
21805;DHT22;11064;47.102;15.452;2023-07-28T01:55:51;14.10;99.90
21805;DHT22;11064;47.102;15.452;2023-07-28T01:58:16;14.00;99.90
21805;DHT22;11064;47.102;15.452;2023-07-28T02:00:42;13.90;99.90
21805;DHT22;11064;47.102;15.452;2023-07-28T02:03:08;13.80;99.90
21805;DHT22;11064;47.102;15.452;2023-07-28T02:05:34;13.70;99.90
21805;DHT22;11064;47.102;15.452;2023-07-28T02:08:00;13.70;99.90
21805;DHT22;11064;47.102;15.452;2023-07-28T02:10:29;13.60;99.90
21805;DHT22;11064;47.102;15.452;2023-07-28T02:12:55;13.50;99.90
21805;DHT22;11064;47.102;15.452;2023-07-28T02:15:21;13.40;99.90
21805;DHT22;11064;47.102;15.452;2023-07-28T02:17:47;13.40;99.90
21805;DHT22;11064;47.102;15.452;2023-07-28T02:20:12;13.40;99.90
21805;DHT22;11064;47.102;15.452;2023-07-28T02:22:41;13.30;99.90
21805;DHT22;11064;47.102;15.452;2023-07-28T02:25:08;13.30;99.90
21805;DHT22;11064;47.102;15.452;2023-07-28T02:27:34;13.30;99.90
21805;DHT22;11064;47.102;15.452;2023-07-28T02:30:00;13.20;99.90
21805;DHT22;11064;47.102;15.452;2023-07-28T02:32:27;13.20;99.90
21805;DHT22;11064;47.102;15.452;2023-07-28T02:34:54;13.20;99.90
21805;DHT22;11064;47.102;15.452;2023-07-28T02:37:20;13.30;99.90
21805;DHT22;11064;47.102;15.452;2023-07-28T02:39:46;13.40;99.90
21805;DHT22;11064;47.102;15.452;2023-07-28T02:42:12;13.40;99.90
21805;DHT22;11064;47.102;15.452;2023-07-28T02:44:39;13.40;99.90
21805;DHT22;11064;47.102;15.452;2023-07-28T02:47:05;13.40;99.90
21805;DHT22;11064;47.102;15.452;2023-07-28T02:49:31;13.40;99.90
21805;DHT22;11064;47.102;15.452;2023-07-28T02:51:57;13.30;99.90
21805;DHT22;11064;47.102;15.452;2023-07-28T02:54:23;13.30;99.90
21805;DHT22;11064;47.102;15.452;2023-07-28T02:56:51;13.40;99.90
21805;DHT22;11064;47.102;15.452;2023-07-28T02:59:17;13.40;99.90
21805;DHT22;11064;47.102;15.452;2023-07-28T03:01:43;13.30;99.90
21805;DHT22;11064;47.102;15.452;2023-07-28T03:04:09;13.30;99.90
21805;DHT22;11064;47.102;15.452;2023-07-28T03:06:34;13.20;99.90
21805;DHT22;11064;47.102;15.452;2023-07-28T03:09:00;13.20;99.90
21805;DHT22;11064;47.102;15.452;2023-07-28T03:11:26;13.20;99.90
21805;DHT22;11064;47.102;15.452;2023-07-28T03:13:53;13.30;99.90
21805;DHT22;11064;47.102;15.452;2023-07-28T03:16:19;13.20;99.90
21805;DHT22;11064;47.102;15.452;2023-07-28T03:18:45;13.20;99.90
21805;DHT22;11064;47.102;15.452;2023-07-28T03:21:11;13.20;99.90
21805;DHT22;11064;47.102;15.452;2023-07-28T03:23:37;13.10;99.90
21805;DHT22;11064;47.102;15.452;2023-07-28T03:26:03;13.10;99.90
21805;DHT22;11064;47.102;15.452;2023-07-28T03:28:29;13.10;99.90
21805;DHT22;11064;47.102;15.452;2023-07-28T03:30:54;13.10;99.90
21805;DHT22;11064;47.102;15.452;2023-07-28T03:33:20;13.10;99.90
21805;DHT22;11064;47.102;15.452;2023-07-28T03:35:46;13.10;99.90
21805;DHT22;11064;47.102;15.452;2023-07-28T03:38:12;13.00;99.90
21805;DHT22;11064;47.102;15.452;2023-07-28T03:40:38;13.00;99.90
21805;DHT22;11064;47.102;15.452;2023-07-28T03:43:04;12.90;99.90
21805;DHT22;11064;47.102;15.452;2023-07-28T04:03:29;13.00;99.90
21805;DHT22;11064;47.102;15.452;2023-07-28T04:05:55;13.00;99.90
21805;DHT22;11064;47.102;15.452;2023-07-28T04:08:21;13.00;99.90
21805;DHT22;11064;47.102;15.452;2023-07-28T04:10:47;13.00;99.90
21805;DHT22;11064;47.102;15.452;2023-07-28T04:13:13;13.00;99.90
21805;DHT22;11064;47.102;15.452;2023-07-28T04:15:39;12.90;99.90
21805;DHT22;11064;47.102;15.452;2023-07-28T04:18:05;12.80;99.90
21805;DHT22;11064;47.102;15.452;2023-07-28T04:20:30;12.80;99.90
21805;DHT22;11064;47.102;15.452;2023-07-28T04:22:56;12.80;99.90
21805;DHT22;11064;47.102;15.452;2023-07-28T04:25:22;12.80;99.90
21805;DHT22;11064;47.102;15.452;2023-07-28T04:27:48;13.00;99.90
21805;DHT22;11064;47.102;15.452;2023-07-28T04:30:14;13.00;99.90
21805;DHT22;11064;47.102;15.452;2023-07-28T04:32:39;13.10;99.90
21805;DHT22;11064;47.102;15.452;2023-07-28T04:35:06;13.20;99.90
21805;DHT22;11064;47.102;15.452;2023-07-28T04:37:32;13.40;99.90
21805;DHT22;11064;47.102;15.452;2023-07-28T04:39:58;13.50;99.90
21805;DHT22;11064;47.102;15.452;2023-07-28T04:42:23;13.60;99.90
21805;DHT22;11064;47.102;15.452;2023-07-28T04:44:49;13.60;99.90
21805;DHT22;11064;47.102;15.452;2023-07-28T04:47:15;13.60;99.90
21805;DHT22;11064;47.102;15.452;2023-07-28T04:49:41;13.60;99.90
21805;DHT22;11064;47.102;15.452;2023-07-28T04:52:07;13.60;99.90
21805;DHT22;11064;47.102;15.452;2023-07-28T04:54:34;13.60;99.90
21805;DHT22;11064;47.102;15.452;2023-07-28T04:57:00;14.00;99.90
21805;DHT22;11064;47.102;15.452;2023-07-28T04:59:25;15.60;99.90
21805;DHT22;11064;47.102;15.452;2023-07-28T05:01:51;16.20;99.90
21805;DHT22;11064;47.102;15.452;2023-07-28T05:04:17;17.60;99.90
21805;DHT22;11064;47.102;15.452;2023-07-28T05:06:43;19.60;99.90
21805;DHT22;11064;47.102;15.452;2023-07-28T05:09:09;20.10;99.90
21805;DHT22;11064;47.102;15.452;2023-07-28T05:11:34;21.00;99.40
21805;DHT22;11064;47.102;15.452;2023-07-28T05:14:00;22.00;96.80
21805;DHT22;11064;47.102;15.452;2023-07-28T05:16:26;23.50;93.00
21805;DHT22;11064;47.102;15.452;2023-07-28T05:18:52;24.70;86.90
21805;DHT22;11064;47.102;15.452;2023-07-28T05:21:17;25.90;77.60
21805;DHT22;11064;47.102;15.452;2023-07-28T05:23:43;26.80;71.50
21805;DHT22;11064;47.102;15.452;2023-07-28T05:26:09;27.80;67.30
21805;DHT22;11064;47.102;15.452;2023-07-28T05:28:35;27.80;62.80
21805;DHT22;11064;47.102;15.452;2023-07-28T05:31:05;27.40;60.80
21805;DHT22;11064;47.102;15.452;2023-07-28T05:33:31;28.00;62.00
21805;DHT22;11064;47.102;15.452;2023-07-28T05:36:03;28.50;60.10
21805;DHT22;11064;47.102;15.452;2023-07-28T05:38:29;27.40;59.60
21805;DHT22;11064;47.102;15.452;2023-07-28T05:41:03;27.30;61.90
21805;DHT22;11064;47.102;15.452;2023-07-28T05:43:30;28.50;59.00
21805;DHT22;11064;47.102;15.452;2023-07-28T05:46:00;28.80;58.30
21805;DHT22;11064;47.102;15.452;2023-07-28T05:48:26;29.00;57.40
21805;DHT22;11064;47.102;15.452;2023-07-28T05:50:52;28.50;57.10
21805;DHT22;11064;47.102;15.452;2023-07-28T05:53:22;26.10;61.70
21805;DHT22;11064;47.102;15.452;2023-07-28T05:55:48;25.60;63.70
21805;DHT22;11064;47.102;15.452;2023-07-28T05:58:14;25.40;64.00
21805;DHT22;11064;47.102;15.452;2023-07-28T06:00:40;23.80;69.70
21805;DHT22;11064;47.102;15.452;2023-07-28T06:03:09;22.90;73.00
21805;DHT22;11064;47.102;15.452;2023-07-28T06:05:35;21.60;78.60
21805;DHT22;11064;47.102;15.452;2023-07-28T06:08:01;21.10;81.50
21805;DHT22;11064;47.102;15.452;2023-07-28T06:10:27;19.80;90.40
21805;DHT22;11064;47.102;15.452;2023-07-28T06:12:53;19.10;93.80
21805;DHT22;11064;47.102;15.452;2023-07-28T06:15:20;19.10;95.60
21805;DHT22;11064;47.102;15.452;2023-07-28T06:17:46;18.80;97.90
21805;DHT22;11064;47.102;15.452;2023-07-28T06:20:11;18.80;99.90
21805;DHT22;11064;47.102;15.452;2023-07-28T06:22:37;18.80;99.90
21805;DHT22;11064;47.102;15.452;2023-07-28T06:25:08;18.90;99.90
21805;DHT22;11064;47.102;15.452;2023-07-28T06:27:33;19.20;99.90
21805;DHT22;11064;47.102;15.452;2023-07-28T06:29:59;19.40;99.90
21805;DHT22;11064;47.102;15.452;2023-07-28T06:32:27;19.80;99.90
21805;DHT22;11064;47.102;15.452;2023-07-28T06:34:54;20.00;99.90
21805;DHT22;11064;47.102;15.452;2023-07-28T06:37:20;20.40;99.90
21805;DHT22;11064;47.102;15.452;2023-07-28T06:39:46;20.60;99.90
21805;DHT22;11064;47.102;15.452;2023-07-28T06:42:11;20.90;98.50
21805;DHT22;11064;47.102;15.452;2023-07-28T06:44:38;21.20;99.10
21805;DHT22;11064;47.102;15.452;2023-07-28T06:47:04;21.50;99.10
21805;DHT22;11064;47.102;15.452;2023-07-28T06:49:30;21.50;99.40
21805;DHT22;11064;47.102;15.452;2023-07-28T06:51:56;21.80;99.90
21805;DHT22;11064;47.102;15.452;2023-07-28T06:54:22;22.00;98.20
21805;DHT22;11064;47.102;15.452;2023-07-28T06:56:48;22.10;97.40
21805;DHT22;11064;47.102;15.452;2023-07-28T06:59:13;22.20;97.70
21805;DHT22;11064;47.102;15.452;2023-07-28T07:01:39;22.40;95.90
21805;DHT22;11064;47.102;15.452;2023-07-28T07:04:05;22.70;96.30
21805;DHT22;11064;47.102;15.452;2023-07-28T07:06:32;22.90;96.30
21805;DHT22;11064;47.102;15.452;2023-07-28T07:08:57;22.60;96.10
21805;DHT22;11064;47.102;15.452;2023-07-28T07:11:23;22.80;96.10
21805;DHT22;11064;47.102;15.452;2023-07-28T07:13:49;22.60;93.70
21805;DHT22;11064;47.102;15.452;2023-07-28T07:16:16;22.60;92.80
21805;DHT22;11064;47.102;15.452;2023-07-28T07:18:46;22.60;93.00
21805;DHT22;11064;47.102;15.452;2023-07-28T07:21:11;23.00;92.90
21805;DHT22;11064;47.102;15.452;2023-07-28T07:23:37;22.90;93.50
21805;DHT22;11064;47.102;15.452;2023-07-28T07:26:03;23.20;94.70
21805;DHT22;11064;47.102;15.452;2023-07-28T07:28:29;23.50;94.00
21805;DHT22;11064;47.102;15.452;2023-07-28T07:30:55;23.40;95.00
21805;DHT22;11064;47.102;15.452;2023-07-28T07:33:23;23.80;93.20
21805;DHT22;11064;47.102;15.452;2023-07-28T07:35:49;23.90;92.90
21805;DHT22;11064;47.102;15.452;2023-07-28T07:38:15;24.30;92.90
21805;DHT22;11064;47.102;15.452;2023-07-28T07:40:40;23.70;92.50
21805;DHT22;11064;47.102;15.452;2023-07-28T07:43:06;24.00;90.30
21805;DHT22;11064;47.102;15.452;2023-07-28T07:45:32;24.00;91.10
21805;DHT22;11064;47.102;15.452;2023-07-28T07:47:59;24.30;91.50
21805;DHT22;11064;47.102;15.452;2023-07-28T07:50:25;24.20;88.50
21805;DHT22;11064;47.102;15.452;2023-07-28T07:52:50;24.30;90.60
21805;DHT22;11064;47.102;15.452;2023-07-28T07:55:16;24.70;87.70
21805;DHT22;11064;47.102;15.452;2023-07-28T07:57:42;24.80;87.10
21805;DHT22;11064;47.102;15.452;2023-07-28T08:00:09;24.90;81.60
21805;DHT22;11064;47.102;15.452;2023-07-28T08:02:35;25.10;82.40
21805;DHT22;11064;47.102;15.452;2023-07-28T08:05:01;25.20;85.30
21805;DHT22;11064;47.102;15.452;2023-07-28T08:07:28;25.30;80.80
21805;DHT22;11064;47.102;15.452;2023-07-28T08:09:54;24.90;83.10
21805;DHT22;11064;47.102;15.452;2023-07-28T08:12:20;24.60;81.20
21805;DHT22;11064;47.102;15.452;2023-07-28T08:14:46;24.70;86.90
21805;DHT22;11064;47.102;15.452;2023-07-28T08:17:12;25.00;88.80
21805;DHT22;11064;47.102;15.452;2023-07-28T08:19:38;25.20;81.30
21805;DHT22;11064;47.102;15.452;2023-07-28T08:22:04;25.50;79.10
21805;DHT22;11064;47.102;15.452;2023-07-28T08:24:30;25.10;78.20
21805;DHT22;11064;47.102;15.452;2023-07-28T08:26:56;24.80;79.70
21805;DHT22;11064;47.102;15.452;2023-07-28T08:29:22;24.60;78.00
21805;DHT22;11064;47.102;15.452;2023-07-28T08:31:48;24.60;75.10
21805;DHT22;11064;47.102;15.452;2023-07-28T08:34:14;24.90;77.20
21805;DHT22;11064;47.102;15.452;2023-07-28T08:36:41;25.30;81.80
21805;DHT22;11064;47.102;15.452;2023-07-28T08:39:07;25.30;75.70
21805;DHT22;11064;47.102;15.452;2023-07-28T08:41:35;25.40;78.60
21805;DHT22;11064;47.102;15.452;2023-07-28T08:44:02;25.40;82.60
21805;DHT22;11064;47.102;15.452;2023-07-28T08:46:27;25.40;77.70
21805;DHT22;11064;47.102;15.452;2023-07-28T08:48:54;24.80;75.20
21805;DHT22;11064;47.102;15.452;2023-07-28T08:51:22;24.80;77.90
21805;DHT22;11064;47.102;15.452;2023-07-28T08:53:49;25.00;82.10
21805;DHT22;11064;47.102;15.452;2023-07-28T08:56:15;25.10;77.10
21805;DHT22;11064;47.102;15.452;2023-07-28T08:58:40;24.90;80.00
21805;DHT22;11064;47.102;15.452;2023-07-28T09:01:07;24.70;83.70
21805;DHT22;11064;47.102;15.452;2023-07-28T09:03:33;24.80;79.30
21805;DHT22;11064;47.102;15.452;2023-07-28T09:06:03;25.00;81.30
21805;DHT22;11064;47.102;15.452;2023-07-28T09:08:32;25.10;80.70
21805;DHT22;11064;47.102;15.452;2023-07-28T09:11:02;24.80;79.00
21805;DHT22;11064;47.102;15.452;2023-07-28T09:13:36;24.90;77.00
21805;DHT22;11064;47.102;15.452;2023-07-28T09:16:04;24.90;80.70
21805;DHT22;11064;47.102;15.452;2023-07-28T09:18:31;25.00;77.30
21805;DHT22;11064;47.102;15.452;2023-07-28T09:20:57;25.20;77.70
21805;DHT22;11064;47.102;15.452;2023-07-28T09:23:30;25.30;73.70
21805;DHT22;11064;47.102;15.452;2023-07-28T09:25:59;25.30;72.70
21805;DHT22;11064;47.102;15.452;2023-07-28T09:28:41;25.40;83.10
21805;DHT22;11064;47.102;15.452;2023-07-28T09:31:07;25.70;82.00
21805;DHT22;11064;47.102;15.452;2023-07-28T09:33:35;25.80;77.70
21805;DHT22;11064;47.102;15.452;2023-07-28T09:36:12;25.80;78.80
21805;DHT22;11064;47.102;15.452;2023-07-28T09:38:40;25.50;82.50
21805;DHT22;11064;47.102;15.452;2023-07-28T09:41:08;25.50;77.20
21805;DHT22;11064;47.102;15.452;2023-07-28T09:43:39;25.40;75.90
21805;DHT22;11064;47.102;15.452;2023-07-28T09:46:07;25.50;76.80
21805;DHT22;11064;47.102;15.452;2023-07-28T09:48:34;25.40;75.20
21805;DHT22;11064;47.102;15.452;2023-07-28T09:51:19;25.40;79.90
21805;DHT22;11064;47.102;15.452;2023-07-28T09:53:55;25.30;79.40
21805;DHT22;11064;47.102;15.452;2023-07-28T09:56:31;25.30;76.40
21805;DHT22;11064;47.102;15.452;2023-07-28T09:58:59;25.30;76.40
21805;DHT22;11064;47.102;15.452;2023-07-28T10:01:27;25.50;75.50
21805;DHT22;11064;47.102;15.452;2023-07-28T10:03:58;25.50;79.40
21805;DHT22;11064;47.102;15.452;2023-07-28T10:06:24;25.70;76.70
21805;DHT22;11064;47.102;15.452;2023-07-28T10:08:50;25.90;73.60
21805;DHT22;11064;47.102;15.452;2023-07-28T10:11:16;26.30;72.60
21805;DHT22;11064;47.102;15.452;2023-07-28T10:13:44;26.30;74.40
21805;DHT22;11064;47.102;15.452;2023-07-28T10:16:12;26.30;71.80
21805;DHT22;11064;47.102;15.452;2023-07-28T10:18:41;26.50;78.50
21805;DHT22;11064;47.102;15.452;2023-07-28T10:21:10;26.60;71.50
21805;DHT22;11064;47.102;15.452;2023-07-28T10:23:41;26.60;77.30
21805;DHT22;11064;47.102;15.452;2023-07-28T10:26:09;26.60;70.60
21805;DHT22;11064;47.102;15.452;2023-07-28T10:28:37;26.70;68.80
21805;DHT22;11064;47.102;15.452;2023-07-28T10:31:10;26.70;67.50
21805;DHT22;11064;47.102;15.452;2023-07-28T10:33:41;26.50;72.60
21805;DHT22;11064;47.102;15.452;2023-07-28T10:38:42;26.60;69.80
21805;DHT22;11064;47.102;15.452;2023-07-28T10:41:15;26.80;76.50
21805;DHT22;11064;47.102;15.452;2023-07-28T10:43:42;27.00;72.00
21805;DHT22;11064;47.102;15.452;2023-07-28T10:46:10;27.40;69.20
21805;DHT22;11064;47.102;15.452;2023-07-28T10:48:37;28.20;67.00
21805;DHT22;11064;47.102;15.452;2023-07-28T10:51:06;28.80;77.70
21805;DHT22;11064;47.102;15.452;2023-07-28T10:53:32;29.30;66.20
21805;DHT22;11064;47.102;15.452;2023-07-28T10:56:01;29.60;69.80
21805;DHT22;11064;47.102;15.452;2023-07-28T10:58:29;29.90;71.30
21805;DHT22;11064;47.102;15.452;2023-07-28T11:00:55;29.70;65.10
21805;DHT22;11064;47.102;15.452;2023-07-28T11:03:22;29.10;65.20
21805;DHT22;11064;47.102;15.452;2023-07-28T11:05:49;29.00;65.00
21805;DHT22;11064;47.102;15.452;2023-07-28T11:08:16;28.90;70.20
21805;DHT22;11064;47.102;15.452;2023-07-28T11:10:42;28.70;61.90
21805;DHT22;11064;47.102;15.452;2023-07-28T11:13:08;28.70;63.40
21805;DHT22;11064;47.102;15.452;2023-07-28T11:15:34;28.60;61.10
21805;DHT22;11064;47.102;15.452;2023-07-28T11:18:03;28.40;63.50
21805;DHT22;11064;47.102;15.452;2023-07-28T11:20:30;28.50;66.10
21805;DHT22;11064;47.102;15.452;2023-07-28T11:22:58;28.60;62.50
21805;DHT22;11064;47.102;15.452;2023-07-28T11:25:26;28.70;63.40
21805;DHT22;11064;47.102;15.452;2023-07-28T11:27:52;28.60;68.60
21805;DHT22;11064;47.102;15.452;2023-07-28T11:30:19;28.30;63.20
21805;DHT22;11064;47.102;15.452;2023-07-28T11:32:47;28.40;74.00
21805;DHT22;11064;47.102;15.452;2023-07-28T11:35:16;28.40;65.20
21805;DHT22;11064;47.102;15.452;2023-07-28T11:37:45;28.30;68.60
21805;DHT22;11064;47.102;15.452;2023-07-28T11:40:15;28.30;66.50
21805;DHT22;11064;47.102;15.452;2023-07-28T11:42:51;28.60;69.20
21805;DHT22;11064;47.102;15.452;2023-07-28T11:45:18;28.70;67.70
21805;DHT22;11064;47.102;15.452;2023-07-28T11:48:11;28.80;68.80
21805;DHT22;11064;47.102;15.452;2023-07-28T11:50:41;28.70;66.40
21805;DHT22;11064;47.102;15.452;2023-07-28T11:53:14;28.60;67.80
21805;DHT22;11064;47.102;15.452;2023-07-28T11:55:41;28.20;66.20
21805;DHT22;11064;47.102;15.452;2023-07-28T11:58:07;28.20;69.50
21805;DHT22;11064;47.102;15.452;2023-07-28T12:00:36;28.20;71.50
21805;DHT22;11064;47.102;15.452;2023-07-28T12:03:06;28.40;73.20
21805;DHT22;11064;47.102;15.452;2023-07-28T12:05:36;28.50;75.30
21805;DHT22;11064;47.102;15.452;2023-07-28T12:08:03;28.50;71.50
21805;DHT22;11064;47.102;15.452;2023-07-28T12:10:29;28.40;68.50
21805;DHT22;11064;47.102;15.452;2023-07-28T12:12:57;28.40;70.80
21805;DHT22;11064;47.102;15.452;2023-07-28T12:15:29;28.30;66.30
21805;DHT22;11064;47.102;15.452;2023-07-28T12:20:42;28.30;65.80
21805;DHT22;11064;47.102;15.452;2023-07-28T12:23:13;28.30;70.90
21805;DHT22;11064;47.102;15.452;2023-07-28T12:25:41;28.40;66.60
21805;DHT22;11064;47.102;15.452;2023-07-28T12:28:07;28.60;73.30
21805;DHT22;11064;47.102;15.452;2023-07-28T12:30:34;28.90;70.00
21805;DHT22;11064;47.102;15.452;2023-07-28T12:33:00;29.20;71.50
21805;DHT22;11064;47.102;15.452;2023-07-28T12:35:27;29.10;68.10
21805;DHT22;11064;47.102;15.452;2023-07-28T12:38:04;29.00;70.20
21805;DHT22;11064;47.102;15.452;2023-07-28T12:40:32;28.90;71.40
21805;DHT22;11064;47.102;15.452;2023-07-28T12:42:59;28.90;69.70
21805;DHT22;11064;47.102;15.452;2023-07-28T12:45:25;29.00;71.30
21805;DHT22;11064;47.102;15.452;2023-07-28T12:47:52;29.30;69.80
21805;DHT22;11064;47.102;15.452;2023-07-28T12:50:20;29.60;68.10
21805;DHT22;11064;47.102;15.452;2023-07-28T12:52:46;29.80;69.00
21805;DHT22;11064;47.102;15.452;2023-07-28T12:55:13;29.70;65.70
21805;DHT22;11064;47.102;15.452;2023-07-28T12:57:39;30.00;67.60
21805;DHT22;11064;47.102;15.452;2023-07-28T13:00:08;29.90;67.10
21805;DHT22;11064;47.102;15.452;2023-07-28T13:02:42;30.00;66.90
21805;DHT22;11064;47.102;15.452;2023-07-28T13:05:09;29.50;67.30
21805;DHT22;11064;47.102;15.452;2023-07-28T13:07:39;29.70;65.90
21805;DHT22;11064;47.102;15.452;2023-07-28T13:10:10;30.00;66.00
21805;DHT22;11064;47.102;15.452;2023-07-28T13:12:37;30.20;64.40
21805;DHT22;11064;47.102;15.452;2023-07-28T13:15:03;30.30;63.20
21805;DHT22;11064;47.102;15.452;2023-07-28T13:17:29;30.20;64.20
21805;DHT22;11064;47.102;15.452;2023-07-28T13:19:55;30.10;66.40
21805;DHT22;11064;47.102;15.452;2023-07-28T13:22:23;30.10;66.00
21805;DHT22;11064;47.102;15.452;2023-07-28T13:24:49;30.10;63.70
21805;DHT22;11064;47.102;15.452;2023-07-28T13:27:15;30.10;66.70
21805;DHT22;11064;47.102;15.452;2023-07-28T13:29:40;30.10;67.10
21805;DHT22;11064;47.102;15.452;2023-07-28T13:32:22;30.30;63.80
21805;DHT22;11064;47.102;15.452;2023-07-28T13:34:52;30.70;62.90
21805;DHT22;11064;47.102;15.452;2023-07-28T13:37:19;30.90;66.50
21805;DHT22;11064;47.102;15.452;2023-07-28T13:39:45;31.10;63.80
21805;DHT22;11064;47.102;15.452;2023-07-28T13:42:11;31.00;57.70
21805;DHT22;11064;47.102;15.452;2023-07-28T13:44:38;30.70;60.40
21805;DHT22;11064;47.102;15.452;2023-07-28T13:47:04;30.70;65.60
21805;DHT22;11064;47.102;15.452;2023-07-28T13:49:31;30.50;65.20
21805;DHT22;11064;47.102;15.452;2023-07-28T13:52:01;30.40;66.60
21805;DHT22;11064;47.102;15.452;2023-07-28T13:54:27;30.50;67.30
21805;DHT22;11064;47.102;15.452;2023-07-28T13:56:53;30.60;65.70
21805;DHT22;11064;47.102;15.452;2023-07-28T13:59:20;30.40;67.20
21805;DHT22;11064;47.102;15.452;2023-07-28T14:01:46;30.20;67.80
21805;DHT22;11064;47.102;15.452;2023-07-28T14:04:12;30.10;68.90
21805;DHT22;11064;47.102;15.452;2023-07-28T14:06:39;30.10;70.00
21805;DHT22;11064;47.102;15.452;2023-07-28T14:09:05;30.30;69.90
21805;DHT22;11064;47.102;15.452;2023-07-28T14:11:31;30.50;68.10
21805;DHT22;11064;47.102;15.452;2023-07-28T14:13:57;30.70;66.50
21805;DHT22;11064;47.102;15.452;2023-07-28T14:16:23;30.80;63.90
21805;DHT22;11064;47.102;15.452;2023-07-28T14:18:49;30.30;65.30
21805;DHT22;11064;47.102;15.452;2023-07-28T14:21:16;29.90;66.30
21805;DHT22;11064;47.102;15.452;2023-07-28T14:23:47;29.60;68.60
21805;DHT22;11064;47.102;15.452;2023-07-28T14:26:13;29.30;65.80
21805;DHT22;11064;47.102;15.452;2023-07-28T14:28:38;29.10;64.40
21805;DHT22;11064;47.102;15.452;2023-07-28T14:31:05;29.20;68.20
21805;DHT22;11064;47.102;15.452;2023-07-28T14:33:31;29.10;70.30
21805;DHT22;11064;47.102;15.452;2023-07-28T14:35:57;28.90;69.80
21805;DHT22;11064;47.102;15.452;2023-07-28T14:38:23;28.90;69.70
21805;DHT22;11064;47.102;15.452;2023-07-28T14:40:49;28.90;69.10
21805;DHT22;11064;47.102;15.452;2023-07-28T14:43:17;28.90;68.90
21805;DHT22;11064;47.102;15.452;2023-07-28T14:45:44;28.80;67.30
21805;DHT22;11064;47.102;15.452;2023-07-28T14:48:10;28.80;66.40
21805;DHT22;11064;47.102;15.452;2023-07-28T14:50:37;28.90;66.60
21805;DHT22;11064;47.102;15.452;2023-07-28T14:53:02;29.00;65.80
21805;DHT22;11064;47.102;15.452;2023-07-28T14:55:28;29.10;65.50
21805;DHT22;11064;47.102;15.452;2023-07-28T14:57:54;29.10;63.00
21805;DHT22;11064;47.102;15.452;2023-07-28T15:00:21;29.00;65.30
21805;DHT22;11064;47.102;15.452;2023-07-28T15:02:47;29.10;65.00
21805;DHT22;11064;47.102;15.452;2023-07-28T15:05:13;29.20;65.10
21805;DHT22;11064;47.102;15.452;2023-07-28T15:07:39;29.30;62.70
21805;DHT22;11064;47.102;15.452;2023-07-28T15:10:05;29.20;63.40
21805;DHT22;11064;47.102;15.452;2023-07-28T15:12:31;29.10;63.70
21805;DHT22;11064;47.102;15.452;2023-07-28T15:14:57;29.20;65.20
21805;DHT22;11064;47.102;15.452;2023-07-28T15:17:23;29.30;66.50
21805;DHT22;11064;47.102;15.452;2023-07-28T15:19:49;29.30;65.90
21805;DHT22;11064;47.102;15.452;2023-07-28T15:22:14;29.70;65.80
21805;DHT22;11064;47.102;15.452;2023-07-28T15:24:40;29.70;64.60
21805;DHT22;11064;47.102;15.452;2023-07-28T15:27:06;29.80;64.60
21805;DHT22;11064;47.102;15.452;2023-07-28T15:29:32;30.00;66.00
21805;DHT22;11064;47.102;15.452;2023-07-28T15:31:58;30.00;66.90
21805;DHT22;11064;47.102;15.452;2023-07-28T15:34:25;30.10;66.30
21805;DHT22;11064;47.102;15.452;2023-07-28T15:36:51;30.00;67.10
21805;DHT22;11064;47.102;15.452;2023-07-28T15:39:17;30.30;66.30